Time;durP1;ratioP1;P1;durP2;ratioP2;P2;SDS_P1;SDS_P2;PMS_P1;PMS_P2;Temp;Humidity;BMP_temperature;BMP_pressure;BME280_temperature;BME280_humidity;BME280_pressure;Samples;Min_cycle;Max_cycle;Signal;HPM_P1;HPM_P2
2023/03/30 00:00:45;;;;;;;9.48;5.55;;;12.30;99.90;;;;;;5090317;28;20056;-64
2023/03/30 00:03:11;;;;;;;8.30;6.55;;;12.20;99.90;;;;;;5073935;28;20442;-64
2023/03/30 00:05:38;;;;;;;8.82;5.50;;;12.20;99.90;;;;;;5090061;28;20320;-64
2023/03/30 00:08:05;;;;;;;9.68;6.25;;;12.30;99.90;;;;;;5073697;28;20054;-64
2023/03/30 00:10:38;;;;;;;10.27;5.80;;;12.20;99.90;;;;;;5091213;28;20098;-64
2023/03/30 00:13:04;;;;;;;11.02;5.93;;;12.20;99.90;;;;;;5073695;28;20097;-63
2023/03/30 00:15:31;;;;;;;10.48;5.60;;;12.20;99.90;;;;;;5090516;28;20080;-63
2023/03/30 00:17:57;;;;;;;7.72;5.85;;;12.20;99.90;;;;;;5089615;28;20044;-65
2023/03/30 00:20:24;;;;;;;8.02;5.95;;;12.20;99.90;;;;;;5091270;28;20079;-65
2023/03/30 00:22:50;;;;;;;9.80;6.13;;;12.20;99.90;;;;;;5096125;28;20039;-65
2023/03/30 00:25:17;;;;;;;8.70;6.13;;;12.20;99.90;;;;;;5093775;28;20047;-63
2023/03/30 00:27:45;;;;;;;9.85;5.75;;;12.20;99.90;;;;;;5093785;28;20055;-63
2023/03/30 00:30:14;;;;;;;10.15;5.53;;;12.10;99.90;;;;;;5076376;28;20075;-64
2023/03/30 00:32:41;;;;;;;9.60;5.93;;;12.10;99.90;;;;;;5093669;28;20482;-64
2023/03/30 00:35:09;;;;;;;8.93;5.22;;;12.10;99.90;;;;;;5093440;28;20380;-64
2023/03/30 00:37:38;;;;;;;8.43;5.18;;;12.20;99.90;;;;;;5093630;28;20078;-64
2023/03/30 00:40:16;;;;;;;7.32;5.15;;;12.20;99.90;;;;;;5096797;28;20430;-64
2023/03/30 00:42:42;;;;;;;9.82;5.13;;;12.20;99.90;;;;;;5097714;28;20142;-64
2023/03/30 00:45:15;;;;;;;7.50;5.18;;;12.30;99.90;;;;;;5097895;28;20138;-65
2023/03/30 00:47:49;;;;;;;6.97;4.88;;;12.40;99.90;;;;;;5100525;28;20069;-64
2023/03/30 00:50:22;;;;;;;6.78;4.70;;;12.50;99.90;;;;;;5102877;28;20447;-64
2023/03/30 00:52:51;;;;;;;7.88;5.22;;;12.50;99.90;;;;;;5096735;28;20070;-65
2023/03/30 00:55:20;;;;;;;8.80;4.85;;;12.50;99.90;;;;;;5096598;28;20043;-64
2023/03/30 00:57:50;;;;;;;8.07;5.07;;;12.50;99.90;;;;;;5093285;28;20075;-64
2023/03/30 01:00:17;;;;;;;9.32;4.78;;;12.50;99.90;;;;;;5079954;28;20129;-63
2023/03/30 01:02:49;;;;;;;8.35;5.15;;;12.50;99.90;;;;;;5096989;28;20091;-64
2023/03/30 01:05:15;;;;;;;;;;;12.50;99.90;;;;;;5097649;28;20047;-64
2023/03/30 01:07:45;;;;;;;6.78;4.22;;;12.50;99.90;;;;;;5095420;28;19969;-64
2023/03/30 01:10:12;;;;;;;11.05;5.15;;;12.50;99.90;;;;;;5095323;28;20036;-64
2023/03/30 01:12:39;;;;;;;6.97;4.57;;;12.50;99.90;;;;;;5096397;28;20083;-64
2023/03/30 01:15:15;;;;;;;8.00;4.88;;;12.60;99.90;;;;;;5096502;28;20086;-65
2023/03/30 01:18:23;;;;;;;8.43;4.32;;;12.60;99.90;;;;;;5096859;28;20104;-64
2023/03/30 01:21:28;;;;;;;8.10;5.03;;;12.60;99.90;;;;;;5086109;28;20436;-64
2023/03/30 01:24:48;;;;;;;5.85;4.80;;;12.60;99.90;;;;;;5066690;28;20129;-63
2023/03/30 01:27:29;;;;;;;8.30;4.30;;;12.70;99.90;;;;;;5019807;28;20085;-64
2023/03/30 01:30:19;;;;;;;6.45;4.63;;;12.60;99.90;;;;;;5073260;28;20096;-64
2023/03/30 01:33:41;;;;;;;7.18;4.50;;;12.70;99.90;;;;;;5073259;28;20372;-63
2023/03/30 01:36:16;;;;;;;8.30;4.53;;;12.70;99.90;;;;;;5031722;28;20077;-64
2023/03/30 01:39:27;;;;;;;9.45;4.25;;;12.70;99.90;;;;;;5015128;28;20046;-64
2023/03/30 01:42:17;;;;;;;6.28;5.25;;;12.70;99.90;;;;;;5009403;28;20049;-64
2023/03/30 01:45:06;;;;;;;8.60;4.85;;;12.70;99.90;;;;;;5087722;28;20048;-64
2023/03/30 01:48:05;;;;;;;9.07;4.60;;;12.70;99.90;;;;;;5072559;28;20067;-64
2023/03/30 01:50:54;;;;;;;6.38;4.78;;;12.60;99.90;;;;;;5020160;28;20080;-63
2023/03/30 01:53:30;;;;;;;8.52;4.53;;;12.60;99.90;;;;;;5072948;28;20048;-64
2023/03/30 01:56:09;;;;;;;7.70;4.93;;;12.60;99.90;;;;;;5072641;28;20080;-64
2023/03/30 01:59:11;;;;;;;6.82;4.55;;;12.60;99.90;;;;;;5073131;28;20080;-64
2023/03/30 02:01:40;;;;;;;6.85;4.53;;;12.50;99.90;;;;;;5052730;28;20469;-65
2023/03/30 02:04:13;;;;;;;5.40;4.10;;;12.50;99.90;;;;;;5052752;28;20037;-65
2023/03/30 02:06:44;;;;;;;6.13;4.63;;;12.50;99.90;;;;;;5061080;28;20383;-64
2023/03/30 02:09:17;;;;;;;;;;;12.60;99.90;;;;;;5072678;28;20102;-65
2023/03/30 02:11:49;;;;;;;5.35;4.22;;;12.60;99.90;;;;;;5073751;28;19920;-64
2023/03/30 02:14:18;;;;;;;7.07;4.30;;;12.60;99.90;;;;;;5056003;28;20080;-64
2023/03/30 02:16:50;;;;;;;7.65;3.83;;;12.60;99.90;;;;;;5072396;28;20408;-65
2023/03/30 02:19:19;;;;;;;7.43;4.47;;;12.70;99.90;;;;;;5073628;28;20056;-64
2023/03/30 02:21:46;;;;;;;8.20;4.53;;;12.70;99.90;;;;;;5072574;28;20440;-64
2023/03/30 02:24:18;;;;;;;6.20;4.03;;;12.70;99.90;;;;;;5087400;28;20482;-63
2023/03/30 02:26:51;;;;;;;7.53;4.03;;;12.70;99.90;;;;;;5092147;28;20076;-64
2023/03/30 02:29:26;;;;;;;6.40;3.95;;;12.70;99.90;;;;;;5093469;28;20036;-64
2023/03/30 02:31:55;;;;;;;6.25;4.13;;;12.60;99.90;;;;;;5075109;28;20044;-64
2023/03/30 02:34:27;;;;;;;9.23;4.60;;;12.60;99.90;;;;;;5092414;28;20394;-64
2023/03/30 02:37:03;;;;;;;8.23;4.90;;;12.60;99.90;;;;;;5091880;28;20058;-63
2023/03/30 02:39:44;;;;;;;6.65;4.07;;;12.50;99.90;;;;;;5092689;28;20127;-64
2023/03/30 02:42:27;;;;;;;6.78;4.45;;;12.50;99.90;;;;;;5092314;28;20063;-65
2023/03/30 02:45:26;;;;;;;5.28;3.72;;;12.40;99.90;;;;;;5092644;28;20483;-64
2023/03/30 02:48:28;;;;;;;7.45;3.90;;;12.40;99.90;;;;;;5091878;28;20036;-63
2023/03/30 02:51:16;;;;;;;7.38;4.30;;;12.30;99.90;;;;;;5091945;28;20051;-64
2023/03/30 02:53:58;;;;;;;6.65;4.03;;;12.30;99.90;;;;;;5093217;28;20105;-64
2023/03/30 02:56:37;;;;;;;6.97;4.25;;;12.30;99.90;;;;;;5091814;28;20047;-63
2023/03/30 02:59:11;;;;;;;7.28;3.53;;;12.40;99.90;;;;;;5091216;28;20498;-65
2023/03/30 03:01:44;;;;;;;6.88;3.67;;;12.30;99.90;;;;;;5074521;28;20098;-63
2023/03/30 03:04:11;;;;;;;5.40;3.67;;;12.30;99.90;;;;;;5091448;28;20062;-65
2023/03/30 03:06:39;;;;;;;8.60;3.50;;;12.30;99.90;;;;;;5074812;28;20153;-64
2023/03/30 03:09:05;;;;;;;7.38;3.72;;;12.30;99.90;;;;;;5091162;28;20044;-64
2023/03/30 03:11:32;;;;;;;5.78;3.70;;;12.20;99.90;;;;;;5091509;28;20108;-65
2023/03/30 03:13:58;;;;;;;7.15;4.10;;;12.30;99.90;;;;;;5091081;28;20131;-63
2023/03/30 03:16:25;;;;;;;6.57;3.38;;;12.30;99.90;;;;;;5091314;28;20126;-63
2023/03/30 03:18:55;;;;;;;5.93;3.70;;;12.30;99.90;;;;;;5091192;28;20101;-64
2023/03/30 03:21:22;;;;;;;6.78;3.78;;;12.30;99.90;;;;;;5091490;28;20083;-64
2023/03/30 03:23:48;;;;;;;6.25;3.40;;;12.30;99.90;;;;;;5091409;28;20052;-64
2023/03/30 03:26:14;;;;;;;6.03;3.78;;;12.30;99.90;;;;;;5091384;28;20040;-64
2023/03/30 03:28:41;;;;;;;6.07;3.88;;;12.30;99.90;;;;;;5091047;28;20048;-65
2023/03/30 03:31:08;;;;;;;6.07;3.63;;;12.30;99.90;;;;;;5090873;28;20150;-64
2023/03/30 03:33:35;;;;;;;5.45;3.70;;;12.30;99.90;;;;;;5091236;28;20372;-63
2023/03/30 03:36:01;;;;;;;5.90;3.33;;;12.40;99.90;;;;;;5091047;28;20620;-63
2023/03/30 03:38:28;;;;;;;8.38;3.40;;;12.40;99.90;;;;;;5073899;28;20048;-64
2023/03/30 03:40:57;;;;;;;8.13;3.15;;;12.40;99.90;;;;;;5091403;28;20051;-64
2023/03/30 03:43:25;;;;;;;6.63;3.55;;;12.50;99.90;;;;;;5090993;28;20127;-64
2023/03/30 03:45:53;;;;;;;7.88;3.38;;;12.50;99.90;;;;;;5091739;28;20129;-64
2023/03/30 03:48:22;;;;;;;5.53;3.10;;;12.60;99.90;;;;;;5092109;28;20079;-64
2023/03/30 03:50:54;;;;;;;5.07;3.15;;;12.60;99.90;;;;;;5090766;28;20131;-64
2023/03/30 03:53:22;;;;;;;7.60;3.55;;;12.50;99.90;;;;;;5091996;28;20062;-64
2023/03/30 03:55:49;;;;;;;8.95;3.10;;;12.50;99.90;;;;;;5073852;28;20380;-64
2023/03/30 03:58:20;;;;;;;5.45;3.50;;;12.60;99.90;;;;;;5087811;28;20060;-65
2023/03/30 04:00:49;;;;;;;4.80;2.88;;;12.50;99.90;;;;;;5070452;28;20400;-65
2023/03/30 04:03:15;;;;;;;6.10;3.35;;;12.50;99.90;;;;;;5054040;28;20052;-63
2023/03/30 04:05:42;;;;;;;6.28;3.38;;;12.50;99.90;;;;;;5070311;28;20049;-63
2023/03/30 04:08:09;;;;;;;6.13;3.35;;;12.60;99.90;;;;;;5089968;28;20048;-64
2023/03/30 04:10:40;;;;;;;7.40;3.60;;;12.50;99.90;;;;;;5090339;28;20040;-64
2023/03/30 04:13:06;;;;;;;7.40;3.50;;;12.40;99.90;;;;;;5073633;28;20086;-64
2023/03/30 04:15:33;;;;;;;5.63;3.95;;;12.40;99.90;;;;;;5089915;28;20084;-63
2023/03/30 04:18:00;;;;;;;7.00;3.72;;;12.30;99.90;;;;;;5073772;28;20499;-64
2023/03/30 04:20:34;;;;;;;6.32;4.05;;;12.30;99.90;;;;;;5090065;28;20135;-64
2023/03/30 04:23:02;;;;;;;7.82;3.95;;;12.30;99.90;;;;;;5089965;28;20109;-63
2023/03/30 04:25:30;;;;;;;6.43;3.60;;;12.20;99.90;;;;;;5091424;28;20059;-65
2023/03/30 04:27:56;;;;;;;7.18;3.88;;;12.20;99.90;;;;;;5091242;28;20039;-64
2023/03/30 04:30:23;;;;;;;5.70;3.78;;;12.20;99.90;;;;;;5091158;28;20044;-63
2023/03/30 04:33:23;;;;;;;6.57;3.85;;;12.20;99.90;;;;;;5091456;28;20059;-64
2023/03/30 04:35:43;;;;;;;7.38;3.55;;;12.20;99.90;;;;;;5086847;28;20080;-64
2023/03/30 04:38:09;;;;;;;5.80;3.25;;;12.20;99.90;;;;;;5090195;28;20080;-64
2023/03/30 04:40:36;;;;;;;5.93;3.50;;;12.30;99.90;;;;;;5089647;28;20135;-64
2023/03/30 04:43:03;;;;;;;5.95;3.63;;;12.30;99.90;;;;;;5090409;28;20464;-63
2023/03/30 04:45:31;;;;;;;7.28;3.15;;;12.30;99.90;;;;;;5091277;28;20087;-64
2023/03/30 04:47:58;;;;;;;7.68;3.97;;;12.30;99.90;;;;;;5089601;28;20094;-64
2023/03/30 04:50:24;;;;;;;5.68;3.35;;;12.40;99.90;;;;;;5072887;28;20079;-63
2023/03/30 04:52:51;;;;;;;6.20;3.38;;;12.40;99.90;;;;;;5090107;28;20113;-63
2023/03/30 04:55:17;;;;;;;6.45;3.45;;;12.40;99.90;;;;;;5089920;28;20082;-65
2023/03/30 04:57:43;;;;;;;7.97;3.63;;;12.30;99.90;;;;;;5089932;28;20468;-64
2023/03/30 05:00:12;;;;;;;4.88;2.97;;;12.40;99.90;;;;;;5089694;28;20294;-62
2023/03/30 05:02:38;;;;;;;6.78;3.47;;;12.40;99.90;;;;;;5089858;28;20109;-65
2023/03/30 05:05:05;;;;;;;7.50;3.58;;;12.40;99.90;;;;;;5090235;28;20059;-64
2023/03/30 05:07:31;;;;;;;5.30;3.05;;;12.40;99.90;;;;;;5090913;28;20055;-63
2023/03/30 05:10:01;;;;;;;7.93;3.30;;;12.40;99.90;;;;;;5091080;28;20048;-64
2023/03/30 05:12:28;;;;;;;9.13;3.75;;;12.40;99.90;;;;;;5090131;28;20402;-63
2023/03/30 05:14:54;;;;;;;6.55;3.25;;;12.40;99.90;;;;;;5059983;28;20043;-64
2023/03/30 05:17:21;;;;;;;4.97;3.30;;;12.40;99.90;;;;;;5092214;28;20052;-63
2023/03/30 05:19:47;;;;;;;5.32;2.88;;;12.40;99.90;;;;;;5090807;28;20052;-62
2023/03/30 05:22:15;;;;;;;6.32;2.95;;;12.40;99.90;;;;;;5091237;28;20048;-64
2023/03/30 05:24:41;;;;;;;6.13;3.00;;;12.50;99.90;;;;;;5089798;28;20091;-64
2023/03/30 05:27:08;;;;;;;5.75;3.35;;;12.40;99.90;;;;;;5092853;28;20705;-63
2023/03/30 05:29:34;;;;;;;6.13;3.22;;;12.40;99.90;;;;;;5093436;28;20058;-64
2023/03/30 05:32:00;;;;;;;5.45;3.10;;;12.50;99.90;;;;;;5092307;28;20051;-64
2023/03/30 05:34:27;;;;;;;7.43;2.63;;;12.40;99.90;;;;;;5091797;28;20044;-63
2023/03/30 05:36:54;;;;;;;7.13;3.72;;;12.50;99.90;;;;;;5091754;28;20145;-62
2023/03/30 05:39:22;;;;;;;4.85;3.13;;;12.50;99.90;;;;;;5091501;28;20359;-62
2023/03/30 05:41:48;;;;;;;8.20;2.88;;;12.40;99.90;;;;;;5075067;28;20052;-63
2023/03/30 05:44:14;;;;;;;6.45;3.05;;;12.50;99.90;;;;;;5090893;28;20052;-61
2023/03/30 05:46:41;;;;;;;6.53;2.72;;;12.50;99.90;;;;;;5091441;28;20056;-62
2023/03/30 05:49:08;;;;;;;10.02;3.83;;;12.50;99.90;;;;;;5076042;28;20299;-63
2023/03/30 05:51:34;;;;;;;6.15;3.42;;;12.50;99.90;;;;;;5093580;28;20139;-63
2023/03/30 05:54:02;;;;;;;7.15;3.42;;;12.50;99.90;;;;;;5094256;28;20056;-62
2023/03/30 05:56:28;;;;;;;6.82;3.40;;;12.60;99.90;;;;;;5093312;28;20094;-63
2023/03/30 05:58:55;;;;;;;6.18;3.08;;;12.60;99.90;;;;;;5092933;28;20070;-63
2023/03/30 06:01:24;;;;;;;8.63;3.72;;;12.60;99.90;;;;;;5094029;28;20048;-62
2023/03/30 06:03:51;;;;;;;7.05;3.78;;;12.60;99.90;;;;;;5094101;28;20075;-64
2023/03/30 06:06:17;;;;;;;6.30;3.75;;;12.60;99.90;;;;;;5093987;28;20424;-62
2023/03/30 06:08:43;;;;;;;6.88;3.40;;;12.60;99.90;;;;;;5093639;28;20471;-63
2023/03/30 06:11:22;;;;;;;7.80;3.33;;;12.60;99.90;;;;;;5075931;28;20055;-64
2023/03/30 06:13:49;;;;;;;6.60;3.20;;;12.60;99.90;;;;;;5075938;28;20052;-64
2023/03/30 06:16:16;;;;;;;7.57;3.42;;;12.60;99.90;;;;;;5075765;28;20093;-64
2023/03/30 06:18:42;;;;;;;8.63;3.42;;;12.60;99.90;;;;;;5092337;28;20083;-64
2023/03/30 06:21:08;;;;;;;5.75;2.90;;;12.60;99.90;;;;;;5093971;28;20352;-63
2023/03/30 06:23:36;;;;;;;8.73;3.20;;;12.80;99.90;;;;;;5092066;28;20467;-63
2023/03/30 06:26:09;;;;;;;7.30;2.83;;;12.70;99.90;;;;;;5075189;28;20048;-64
2023/03/30 06:28:43;;;;;;;7.03;2.90;;;12.80;99.90;;;;;;5074785;28;20174;-64
2023/03/30 06:31:10;;;;;;;7.72;3.08;;;12.90;99.90;;;;;;5075461;28;20040;-62
2023/03/30 06:33:37;;;;;;;5.22;2.30;;;12.90;99.90;;;;;;5075620;28;20524;-63
2023/03/30 06:36:10;;;;;;;10.77;2.67;;;12.80;99.90;;;;;;5075147;28;20040;-63
2023/03/30 06:38:36;;;;;;;8.95;2.53;;;12.80;99.90;;;;;;5092085;28;20106;-63
2023/03/30 06:41:07;;;;;;;8.43;2.92;;;12.80;99.90;;;;;;5092355;28;20479;-63
2023/03/30 06:43:33;;;;;;;5.95;3.03;;;12.70;99.90;;;;;;5091931;28;20134;-62
2023/03/30 06:46:07;;;;;;;12.02;3.40;;;12.70;99.90;;;;;;5074978;28;20139;-63
2023/03/30 06:48:33;;;;;;;12.32;3.33;;;12.70;99.90;;;;;;5091144;28;20173;-64
2023/03/30 06:51:01;;;;;;;9.68;4.10;;;12.70;99.90;;;;;;5092081;28;20131;-63
2023/03/30 06:53:28;;;;;;;11.32;3.10;;;12.90;99.90;;;;;;5091706;28;20043;-62
2023/03/30 06:55:56;;;;;;;9.25;2.92;;;12.90;99.90;;;;;;5091698;28;20142;-63
2023/03/30 06:58:26;;;;;;;12.45;3.92;;;12.90;99.90;;;;;;5090666;28;20056;-62
2023/03/30 07:00:52;;;;;;;10.32;3.40;;;12.90;99.90;;;;;;5092616;28;20048;-62
2023/03/30 07:03:19;;;;;;;11.93;3.80;;;12.90;99.90;;;;;;5092274;28;20067;-63
2023/03/30 07:05:51;;;;;;;12.77;3.78;;;13.10;99.90;;;;;;5074981;28;20109;-63
2023/03/30 07:08:18;;;;;;;9.50;3.25;;;13.10;99.90;;;;;;5074128;28;20097;-63
2023/03/30 07:10:46;;;;;;;14.52;3.67;;;13.00;99.90;;;;;;5074804;28;20127;-64
2023/03/30 07:13:13;;;;;;;9.38;3.15;;;13.00;99.90;;;;;;5074835;28;20131;-62
2023/03/30 07:15:40;;;;;;;14.02;3.72;;;13.00;99.90;;;;;;5074809;28;20048;-63
2023/03/30 07:18:07;;;;;;;14.60;3.30;;;12.90;99.90;;;;;;5073551;28;20087;-63
2023/03/30 07:20:33;;;;;;;13.98;3.88;;;12.90;99.90;;;;;;5092518;28;20054;-64
2023/03/30 07:23:01;;;;;;;13.02;3.95;;;12.80;99.90;;;;;;5092141;28;20076;-63
2023/03/30 07:25:27;;;;;;;17.77;3.70;;;12.90;99.90;;;;;;5074463;28;20048;-63
2023/03/30 07:27:54;;;;;;;10.10;3.35;;;12.80;99.90;;;;;;5073861;28;20044;-64
2023/03/30 07:30:21;;;;;;;16.40;4.05;;;12.70;99.90;;;;;;5057180;28;20133;-63
2023/03/30 07:32:49;;;;;;;14.10;3.22;;;12.70;99.90;;;;;;5074584;28;20047;-63
2023/03/30 07:35:15;;;;;;;10.30;3.03;;;12.70;99.90;;;;;;5092280;28;20460;-63
2023/03/30 07:37:42;;;;;;;12.05;3.08;;;12.70;99.90;;;;;;5074080;28;20501;-63
2023/03/30 07:40:14;;;;;;;15.50;3.42;;;12.60;99.90;;;;;;5092047;28;20048;-63
2023/03/30 07:42:42;;;;;;;12.27;3.78;;;12.60;99.90;;;;;;5092142;28;20628;-62
2023/03/30 07:45:09;;;;;;;12.85;2.95;;;12.60;99.90;;;;;;5092058;28;20094;-63
2023/03/30 07:47:36;;;;;;;13.70;3.40;;;12.60;99.90;;;;;;5073741;28;20044;-63
2023/03/30 07:50:03;;;;;;;14.23;3.17;;;12.50;99.90;;;;;;5056660;28;20084;-62
2023/03/30 07:52:29;;;;;;;12.55;3.67;;;12.50;99.90;;;;;;5073959;28;20059;-63
2023/03/30 07:54:56;;;;;;;17.00;4.15;;;12.50;99.90;;;;;;5092020;28;20072;-63
2023/03/30 07:57:22;;;;;;;14.48;3.63;;;12.50;99.90;;;;;;5073630;28;20321;-62
2023/03/30 07:59:49;;;;;;;12.75;4.32;;;12.50;99.90;;;;;;5073432;28;20051;-64
2023/03/30 08:02:16;;;;;;;17.42;3.67;;;12.50;99.90;;;;;;5091883;28;20116;-63
2023/03/30 08:04:43;;;;;;;14.27;4.32;;;12.50;99.90;;;;;;5073690;28;20083;-62
2023/03/30 08:07:11;;;;;;;18.33;4.22;;;12.60;99.90;;;;;;5091280;28;20055;-63
2023/03/30 08:09:38;;;;;;;15.10;3.75;;;12.60;99.90;;;;;;5073364;28;20113;-62
2023/03/30 08:12:05;;;;;;;17.02;4.18;;;12.60;99.90;;;;;;5091609;28;20044;-63
2023/03/30 08:14:31;;;;;;;12.43;3.50;;;12.50;99.90;;;;;;5073882;28;20056;-63
2023/03/30 08:17:01;;;;;;;16.50;3.63;;;12.40;99.90;;;;;;5073181;28;20506;-63
2023/03/30 08:19:27;;;;;;;17.25;4.90;;;12.40;99.90;;;;;;5073309;28;20052;-62
2023/03/30 08:21:55;;;;;;;16.50;5.35;;;12.40;99.90;;;;;;5073584;28;20709;-63
2023/03/30 08:24:21;;;;;;;18.33;4.82;;;12.30;99.90;;;;;;5072873;28;20494;-63
2023/03/30 08:26:48;;;;;;;16.25;4.63;;;12.20;99.90;;;;;;5073030;28;20131;-63
2023/03/30 08:29:20;;;;;;;18.10;4.45;;;12.20;99.90;;;;;;5073170;28;20052;-63
2023/03/30 08:31:47;;;;;;;14.38;4.30;;;12.20;99.90;;;;;;5073319;28;20098;-62
2023/03/30 08:34:14;;;;;;;18.92;4.82;;;12.20;99.90;;;;;;5073528;28;20123;-63
2023/03/30 08:36:40;;;;;;;19.40;4.68;;;12.30;99.90;;;;;;5073502;28;20044;-64
2023/03/30 08:39:07;;;;;;;16.48;4.40;;;12.40;99.90;;;;;;5090990;28;20131;-63
2023/03/30 08:41:59;;;;;;;16.58;4.80;;;12.50;99.90;;;;;;5073157;28;20055;-62
2023/03/30 08:44:43;;;;;;;15.07;5.28;;;12.50;99.90;;;;;;5091108;28;20055;-63
2023/03/30 08:47:13;;;;;;;15.60;4.07;;;12.60;99.90;;;;;;5072542;28;20053;-62
2023/03/30 08:49:59;;;;;;;18.15;4.28;;;12.70;99.90;;;;;;5090961;28;20077;-62
2023/03/30 08:52:25;;;;;;;15.45;4.28;;;13.00;99.90;;;;;;5091238;28;20141;-63
2023/03/30 08:54:52;;;;;;;15.40;4.63;;;13.20;99.90;;;;;;5091531;28;20076;-63
2023/03/30 08:57:28;;;;;;;13.93;4.68;;;13.30;99.90;;;;;;5090737;28;20076;-63
2023/03/30 09:00:11;;;;;;;14.65;4.03;;;13.30;99.90;;;;;;5092188;28;20483;-62
2023/03/30 09:02:46;;;;;;;15.35;3.33;;;13.30;99.90;;;;;;5077050;28;20079;-63
2023/03/30 09:05:27;;;;;;;10.25;3.65;;;13.30;99.90;;;;;;5095715;28;20043;-63
2023/03/30 09:08:03;;;;;;;15.93;3.42;;;13.30;99.90;;;;;;5076386;28;20380;-63
2023/03/30 09:10:34;;;;;;;15.02;4.10;;;13.30;99.90;;;;;;5077383;28;20048;-62
2023/03/30 09:13:04;;;;;;;16.65;5.15;;;13.40;99.90;;;;;;5094828;28;20044;-63
2023/03/30 09:15:35;;;;;;;14.63;4.00;;;13.40;99.90;;;;;;5095204;28;20083;-62
2023/03/30 09:18:26;;;;;;;12.63;3.13;;;13.40;99.90;;;;;;5075979;28;20051;-62
2023/03/30 09:20:56;;;;;;;12.13;3.33;;;13.40;99.90;;;;;;5094907;28;20102;-62
2023/03/30 09:23:23;;;;;;;12.57;3.20;;;13.40;99.90;;;;;;5059867;28;20399;-63
2023/03/30 09:25:58;;;;;;;13.02;3.38;;;13.40;99.90;;;;;;5095040;28;20050;-63
2023/03/30 09:28:42;;;;;;;16.13;3.55;;;13.50;99.90;;;;;;5076257;28;20055;-63
2023/03/30 09:31:33;;;;;;;9.20;2.78;;;13.50;99.90;;;;;;5076681;28;20127;-62
2023/03/30 09:34:20;;;;;;;11.85;3.13;;;13.60;99.90;;;;;;5076996;28;20047;-63
2023/03/30 09:37:02;;;;;;;12.88;3.00;;;13.80;99.90;;;;;;5076673;28;20120;-63
2023/03/30 09:39:34;;;;;;;13.10;3.38;;;13.90;99.90;;;;;;5076347;28;20048;-62
2023/03/30 09:42:35;;;;;;;11.68;2.53;;;13.90;99.90;;;;;;5076896;28;20051;-63
2023/03/30 09:45:24;;;;;;;10.85;3.00;;;13.90;99.90;;;;;;5094685;28;20247;-62
2023/03/30 09:47:50;;;;;;;9.02;2.97;;;13.80;99.90;;;;;;5075611;28;20091;-63
2023/03/30 09:50:27;;;;;;;11.23;3.50;;;13.80;99.90;;;;;;5094759;28;20041;-63
2023/03/30 09:53:05;;;;;;;10.55;2.88;;;13.80;99.90;;;;;;5094571;28;20109;-63
2023/03/30 09:55:38;;;;;;;16.05;3.95;;;13.80;99.90;;;;;;5075976;28;20112;-63
2023/03/30 09:58:22;;;;;;;15.90;2.95;;;13.90;99.90;;;;;;5093183;28;20507;-62
2023/03/30 10:01:11;;;;;;;14.57;3.30;;;14.00;99.90;;;;;;5094071;28;20062;-60
2023/03/30 10:03:46;;;;;;;14.48;3.08;;;14.00;99.90;;;;;;5094047;28;20511;-63
2023/03/30 10:06:17;;;;;;;14.95;2.95;;;14.10;99.90;;;;;;5076009;28;20143;-63
2023/03/30 10:08:55;;;;;;;12.95;3.28;;;14.20;99.90;;;;;;5073449;28;20056;-63
2023/03/30 10:11:35;;;;;;;;;;;14.20;99.90;;;;;;5073612;28;20136;-63
2023/03/30 10:14:09;;;;;;;10.82;2.97;;;14.30;99.90;;;;;;5073784;28;19935;-64
2023/03/30 10:16:36;;;;;;;14.30;3.17;;;14.40;99.90;;;;;;5077067;28;20044;-62
2023/03/30 10:19:21;;;;;;;12.27;3.03;;;14.50;99.90;;;;;;5075762;28;20380;-63
2023/03/30 10:21:53;;;;;;;11.98;2.70;;;14.50;99.90;;;;;;5093634;28;20113;-63
2023/03/30 10:24:23;;;;;;;15.25;3.55;;;14.70;99.90;;;;;;5093044;28;20087;-63
2023/03/30 10:26:54;;;;;;;12.43;3.00;;;14.80;99.90;;;;;;5093431;28;20044;-63
2023/03/30 10:29:22;;;;;;;12.13;2.85;;;14.90;99.90;;;;;;5093284;28;20062;-63
2023/03/30 10:31:57;;;;;;;9.77;3.17;;;15.10;99.90;;;;;;5075773;28;20123;-63
2023/03/30 10:34:55;;;;;;;10.88;2.50;;;15.00;99.90;;;;;;5075862;28;20131;-62
2023/03/30 10:37:28;;;;;;;10.55;3.25;;;15.20;99.90;;;;;;5077040;28;20075;-63
2023/03/30 10:39:55;;;;;;;10.88;3.10;;;15.20;99.90;;;;;;5092645;28;20071;-63
2023/03/30 10:42:25;;;;;;;12.95;3.40;;;15.30;99.90;;;;;;5075471;28;20117;-63
2023/03/30 10:45:01;;;;;;;9.18;2.70;;;15.30;99.90;;;;;;5093134;28;20076;-62
2023/03/30 10:47:44;;;;;;;10.73;3.15;;;15.30;99.90;;;;;;5074731;28;20044;-62
2023/03/30 10:50:26;;;;;;;11.05;2.78;;;15.40;99.90;;;;;;5093290;28;20048;-63
2023/03/30 10:53:11;;;;;;;16.88;3.38;;;15.30;99.90;;;;;;5092881;28;20368;-62
2023/03/30 10:56:02;;;;;;;12.38;3.00;;;15.40;99.90;;;;;;5075259;28;20040;-62
2023/03/30 10:58:44;;;;;;;13.07;3.40;;;15.30;99.90;;;;;;5092384;28;20105;-63
2023/03/30 11:01:16;;;;;;;14.32;3.17;;;15.30;99.90;;;;;;5075121;28;20051;-62
2023/03/30 11:03:56;;;;;;;13.60;3.05;;;15.20;99.90;;;;;;5093440;28;20087;-63
2023/03/30 11:06:45;;;;;;;15.68;2.97;;;15.30;99.90;;;;;;5092642;28;20080;-63
2023/03/30 11:09:18;;;;;;;17.38;3.08;;;15.30;99.90;;;;;;5092313;28;20155;-63
2023/03/30 11:11:52;;;;;;;15.98;3.70;;;15.30;99.90;;;;;;5092876;28;20123;-64
2023/03/30 11:14:26;;;;;;;13.70;3.05;;;15.30;99.90;;;;;;5092707;28;20040;-62
2023/03/30 11:17:07;;;;;;;15.73;3.08;;;15.20;99.90;;;;;;5092284;28;20079;-63
2023/03/30 11:19:41;;;;;;;13.43;3.45;;;15.20;99.90;;;;;;5092156;28;20532;-62
2023/03/30 11:22:23;;;;;;;14.80;4.05;;;15.30;99.90;;;;;;5092706;28;20853;-62
2023/03/30 11:24:51;;;;;;;13.60;3.65;;;15.30;99.90;;;;;;5091463;28;20083;-63
2023/03/30 11:27:33;;;;;;;15.38;3.58;;;15.40;99.90;;;;;;5074336;28;20068;-61
2023/03/30 11:30:11;;;;;;;13.45;3.47;;;15.30;99.90;;;;;;5074323;28;20174;-63
2023/03/30 11:33:16;;;;;;;15.50;3.63;;;15.60;99.90;;;;;;5074475;28;20094;-63
2023/03/30 11:35:52;;;;;;;17.27;3.25;;;15.60;99.90;;;;;;5065220;28;20138;-63
2023/03/30 11:38:24;;;;;;;15.23;3.65;;;15.60;99.90;;;;;;5091736;28;20048;-63
2023/03/30 11:40:56;;;;;;;14.07;3.78;;;15.60;99.90;;;;;;5092496;28;20088;-62
2023/03/30 11:43:26;;;;;;;11.95;3.22;;;15.50;99.90;;;;;;5092493;28;20095;-63
2023/03/30 11:46:04;;;;;;;20.27;3.60;;;15.40;99.90;;;;;;5074000;28;20054;-62
2023/03/30 11:48:49;;;;;;;15.55;4.07;;;15.50;99.90;;;;;;5073164;28;20080;-62
2023/03/30 11:51:36;;;;;;;14.88;3.80;;;15.40;99.90;;;;;;5092461;28;20109;-62
2023/03/30 11:54:22;;;;;;;16.40;3.70;;;15.50;99.90;;;;;;5074345;28;20048;-63
2023/03/30 11:57:43;;;;;;;16.75;3.70;;;15.60;99.90;;;;;;5073835;28;20036;-62
2023/03/30 12:00:42;;;;;;;16.25;3.60;;;15.60;99.90;;;;;;4983468;28;20081;-62
2023/03/30 12:03:14;;;;;;;21.33;4.15;;;15.50;99.90;;;;;;5091770;28;20063;-62
2023/03/30 12:05:48;;;;;;;15.02;3.38;;;15.60;99.90;;;;;;5074042;28;20079;-61
2023/03/30 12:08:41;;;;;;;11.98;3.08;;;15.70;99.90;;;;;;5091343;28;20141;-63
2023/03/30 12:11:45;;;;;;;16.73;3.53;;;15.90;99.90;;;;;;5092089;28;20071;-62
2023/03/30 12:14:54;;;;;;;14.70;3.60;;;15.90;99.90;;;;;;5060804;28;20127;-63
2023/03/30 12:17:58;;;;;;;15.57;3.28;;;15.80;99.90;;;;;;5073800;28;20095;-63
2023/03/30 12:21:07;;;;;;;14.25;3.38;;;15.80;99.90;;;;;;5061757;28;20098;-62
2023/03/30 12:24:28;;;;;;;12.90;3.58;;;16.00;99.90;;;;;;4992863;28;20093;-63
2023/03/30 12:26:55;;;;;;;20.17;3.78;;;15.90;99.90;;;;;;5009093;28;20053;-62
2023/03/30 12:29:21;;;;;;;14.35;3.50;;;15.80;99.90;;;;;;5078572;28;20430;-62
2023/03/30 12:32:01;;;;;;;19.45;3.75;;;15.60;99.90;;;;;;5073689;28;20051;-64
2023/03/30 12:34:35;;;;;;;19.15;4.32;;;15.80;99.90;;;;;;5091051;28;20087;-63
2023/03/30 12:37:21;;;;;;;19.90;4.38;;;15.90;99.90;;;;;;5073351;28;20071;-63
2023/03/30 12:40:05;;;;;;;15.20;3.78;;;15.90;99.90;;;;;;5091225;28;20484;-62
2023/03/30 12:42:36;;;;;;;17.13;4.20;;;15.90;99.90;;;;;;5091393;28;20078;-63
2023/03/30 12:45:14;;;;;;;17.48;4.07;;;15.80;99.90;;;;;;5071299;28;20132;-63
2023/03/30 12:48:08;;;;;;;16.75;3.92;;;16.00;99.90;;;;;;5082607;28;20070;-62
2023/03/30 12:50:36;;;;;;;12.23;3.78;;;15.80;99.90;;;;;;5073619;28;20075;-63
2023/03/30 12:53:29;;;;;;;20.08;4.35;;;15.80;99.90;;;;;;5091590;28;20048;-62
2023/03/30 12:56:01;;;;;;;16.85;4.63;;;15.90;99.90;;;;;;5073623;28;20244;-63
2023/03/30 12:59:02;;;;;;;17.30;3.35;;;15.90;99.90;;;;;;5072646;28;20048;-64
2023/03/30 13:02:09;;;;;;;18.08;3.90;;;15.80;99.90;;;;;;5073525;28;20048;-63
2023/03/30 13:04:38;;;;;;;19.55;3.85;;;15.70;99.90;;;;;;5073321;28;20095;-63
2023/03/30 13:07:12;;;;;;;19.00;4.85;;;15.90;99.90;;;;;;5072941;28;20052;-63
2023/03/30 13:09:58;;;;;;;18.30;3.90;;;15.90;99.90;;;;;;5072950;28;20056;-62
2023/03/30 13:12:38;;;;;;;17.10;4.30;;;15.80;99.90;;;;;;5091629;28;20443;-63
2023/03/30 13:15:54;;;;;;;16.88;3.75;;;16.00;99.90;;;;;;5091035;28;20453;-64
2023/03/30 13:18:32;;;;;;;17.02;3.95;;;15.80;99.90;;;;;;5074354;28;20084;-63